createdAt,value
2019-05-05T00:00:01.062Z,0.00
2019-05-05T00:05:01.042Z,0.00
2019-05-05T00:10:01.063Z,0.19
2019-05-05T00:15:01.081Z,0.00
2019-05-05T00:20:01.058Z,0.00
2019-05-05T00:25:01.070Z,0.00
2019-05-05T00:30:01.075Z,0.04
2019-05-05T00:35:01.476Z,0.08
2019-05-05T00:40:01.041Z,0.35
2019-05-05T00:45:01.067Z,0.15
2019-05-05T00:50:01.392Z,0.27
2019-05-05T00:55:01.419Z,0.19
2019-05-05T01:00:01.082Z,0.33
2019-05-05T01:05:01.442Z,0.13
2019-05-05T01:10:01.063Z,0.00
2019-05-05T01:15:01.084Z,0.00
2019-05-05T01:20:04.100Z,0.00
2019-05-05T01:25:01.409Z,0.00
2019-05-05T01:30:01.076Z,0.00
2019-05-05T01:35:01.439Z,0.00
2019-05-05T01:40:01.073Z,0.00
2019-05-05T01:45:01.059Z,0.21
2019-05-05T01:50:08.209Z,0.31
2019-05-05T01:55:01.060Z,0.93
2019-05-05T02:00:01.095Z,1.16
2019-05-05T02:05:01.054Z,1.07
2019-05-05T02:10:01.387Z,0.49
2019-05-05T02:15:01.482Z,0.14
2019-05-05T02:20:01.532Z,0.63
2019-05-05T02:25:01.091Z,2.54
2019-05-05T02:30:01.060Z,1.75
2019-05-05T02:35:01.055Z,3.16
2019-05-05T02:40:06.228Z,2.96
2019-05-05T02:45:01.526Z,2.57
2019-05-05T02:50:01.052Z,2.08
2019-05-05T02:55:01.513Z,2.61
2019-05-05T03:00:01.067Z,3.22
2019-05-05T03:05:01.368Z,3.06
2019-05-05T03:10:01.063Z,3.08
2019-05-05T03:15:01.429Z,3.32
2019-05-05T03:20:01.051Z,2.61
2019-05-05T03:25:01.028Z,3.17
2019-05-05T03:30:01.048Z,3.10
2019-05-05T03:35:01.058Z,2.92
2019-05-05T03:40:01.051Z,3.98
2019-05-05T03:45:01.092Z,3.98
2019-05-05T03:50:01.078Z,3.65
2019-05-05T03:55:01.053Z,4.15
2019-05-05T04:00:01.082Z,4.07
2019-05-05T04:50:01.074Z,3.52
2019-05-05T04:55:01.034Z,2.75
2019-05-05T05:00:01.112Z,3.85
2019-05-05T05:05:01.060Z,2.99
2019-05-05T05:10:01.101Z,3.75
2019-05-05T05:15:01.194Z,3.35
2019-05-05T05:20:01.058Z,3.21
2019-05-05T05:25:01.046Z,2.88
2019-05-05T05:30:01.046Z,3.37
2019-05-05T05:35:01.051Z,3.28
2019-05-05T05:40:01.073Z,3.60
2019-05-05T05:45:01.086Z,2.98
2019-05-05T05:50:01.057Z,3.83
2019-05-05T05:55:01.049Z,3.48
2019-05-05T06:00:01.081Z,3.88
2019-05-05T06:05:01.500Z,4.41
2019-05-05T06:10:01.043Z,3.11
2019-05-05T06:15:03.699Z,3.04
2019-05-05T06:20:01.154Z,4.38
2019-05-05T06:25:01.069Z,3.76
2019-05-05T06:30:01.485Z,3.18
2019-05-05T06:35:01.065Z,1.80
2019-05-05T06:40:01.058Z,3.21
2019-05-05T06:45:01.497Z,4.14
2019-05-05T06:50:06.473Z,2.47
2019-05-05T06:55:03.638Z,4.00
2019-05-05T07:00:03.494Z,3.86
2019-05-05T07:05:01.202Z,3.62
2019-05-05T07:10:01.100Z,3.37
2019-05-05T07:15:01.430Z,3.83
2019-05-05T07:20:01.070Z,3.51
2019-05-05T07:25:01.067Z,3.41
2019-05-05T07:30:01.228Z,2.88
2019-05-05T07:35:01.061Z,3.97
2019-05-05T07:40:01.057Z,2.57
2019-05-05T07:45:01.045Z,2.36
2019-05-05T07:50:01.046Z,2.00
2019-05-05T07:55:01.056Z,3.58
2019-05-05T08:00:01.132Z,2.47
2019-05-05T08:05:01.548Z,3.82
2019-05-05T08:10:01.058Z,3.64
2019-05-05T08:15:01.085Z,4.21
2019-05-05T08:20:01.077Z,4.01
2019-05-05T08:25:01.052Z,3.55
2019-05-05T08:30:03.095Z,2.94
2019-05-05T08:35:01.237Z,2.57
2019-05-05T08:40:01.369Z,3.87
2019-05-05T08:45:01.085Z,3.23
2019-05-05T08:50:01.103Z,3.74
2019-05-05T08:55:01.103Z,3.30
2019-05-05T09:00:01.110Z,2.94
2019-05-05T09:05:01.079Z,3.14
2019-05-05T09:10:03.732Z,3.96
2019-05-05T09:15:01.416Z,2.25
2019-05-05T09:20:01.074Z,3.78
2019-05-05T09:25:04.375Z,2.83
2019-05-05T09:30:01.093Z,3.31
2019-05-05T09:35:01.086Z,3.70
2019-05-05T09:40:01.580Z,3.46
2019-05-05T09:45:01.590Z,3.67
2019-05-05T09:50:01.071Z,3.73
2019-05-05T09:55:01.100Z,2.90
2019-05-05T10:00:01.073Z,2.79
2019-05-05T10:05:01.061Z,2.78
2019-05-05T10:10:01.059Z,3.35
2019-05-05T10:15:09.870Z,2.26
2019-05-05T10:20:01.557Z,3.31
2019-05-05T10:25:01.119Z,2.52
2019-05-05T10:30:01.115Z,3.24
2019-05-05T10:35:04.188Z,2.68
2019-05-05T10:40:03.513Z,2.66
2019-05-05T10:45:01.514Z,2.23
2019-05-05T10:50:01.680Z,3.20
2019-05-05T10:55:01.439Z,2.60
2019-05-05T11:00:10.127Z,3.07
2019-05-05T11:05:01.073Z,4.03
2019-05-05T11:10:01.094Z,2.62
2019-05-05T11:15:03.931Z,3.38
2019-05-05T11:20:01.132Z,3.11
2019-05-05T11:25:01.603Z,4.08
2019-05-05T11:30:01.142Z,4.05
2019-05-05T11:35:01.754Z,3.38
2019-05-05T11:40:01.525Z,4.97
2019-05-05T11:45:01.483Z,3.87
2019-05-05T11:50:01.136Z,2.98
2019-05-05T11:55:09.822Z,3.08
2019-05-05T12:00:01.180Z,1.99
2019-05-05T12:05:01.089Z,2.51
2019-05-05T12:10:01.423Z,1.45
2019-05-05T12:15:01.101Z,2.07
2019-05-05T12:20:01.217Z,2.39
2019-05-05T12:25:01.121Z,2.85
2019-05-05T12:30:01.107Z,2.82
2019-05-05T12:35:01.114Z,2.56
2019-05-05T12:40:01.075Z,2.19
2019-05-05T12:45:01.097Z,2.50
2019-05-05T12:50:01.037Z,3.00
2019-05-05T12:55:04.333Z,3.51
2019-05-05T13:00:01.081Z,4.02
2019-05-05T13:05:01.192Z,3.15
2019-05-05T13:10:01.159Z,3.98
2019-05-05T13:15:01.045Z,4.35
2019-05-05T13:20:01.134Z,3.06
2019-05-05T13:25:01.056Z,2.98
2019-05-05T13:30:01.138Z,3.70
2019-05-05T13:35:01.129Z,4.06
2019-05-05T13:40:01.089Z,4.89
2019-05-05T13:45:01.101Z,3.69
2019-05-05T13:50:01.102Z,4.08
2019-05-05T13:55:01.068Z,4.04
2019-05-05T14:00:01.114Z,3.49
2019-05-05T14:05:01.072Z,3.01
2019-05-05T14:10:01.079Z,2.59
2019-05-05T14:15:01.060Z,3.76
2019-05-05T14:20:06.728Z,2.73
2019-05-05T14:25:01.040Z,3.03
2019-05-05T14:30:01.113Z,4.88
2019-05-05T14:35:01.274Z,3.53
2019-05-05T14:40:01.041Z,2.88
2019-05-05T14:45:01.336Z,2.92
2019-05-05T14:50:01.271Z,3.31
2019-05-05T14:55:01.088Z,2.65
2019-05-05T15:00:01.297Z,3.60
2019-05-05T15:05:01.043Z,4.44
2019-05-05T15:10:01.827Z,4.02
2019-05-05T15:15:01.065Z,3.18
2019-05-05T15:20:01.326Z,3.47
2019-05-05T15:25:01.061Z,3.86
2019-05-05T15:30:01.074Z,3.74
2019-05-05T15:35:01.064Z,4.22
2019-05-05T15:40:01.084Z,3.30
2019-05-05T15:45:01.126Z,2.87
2019-05-05T15:50:01.082Z,3.58
2019-05-05T15:55:01.071Z,3.26
2019-05-05T16:00:01.060Z,2.79
2019-05-05T16:05:01.035Z,3.54
2019-05-05T16:10:01.094Z,3.35
2019-05-05T16:15:01.066Z,5.25
2019-05-05T16:20:01.069Z,4.79
2019-05-05T16:25:01.061Z,4.55
2019-05-05T16:30:01.432Z,4.40
2019-05-05T16:35:03.608Z,3.40
2019-05-05T16:40:01.097Z,3.77
2019-05-05T16:45:01.357Z,3.80
2019-05-05T16:50:01.064Z,3.93
2019-05-05T16:55:01.090Z,4.34
2019-05-05T17:00:01.165Z,2.63
2019-05-05T17:05:01.471Z,1.47
2019-05-05T17:10:01.045Z,2.48
2019-05-05T17:15:01.757Z,2.63
2019-05-05T17:20:01.031Z,3.08
2019-05-05T17:25:01.089Z,2.91
2019-05-05T17:30:01.051Z,2.45
